Sunday, July 22, 2018, 10:33 AM EDT
Back to Local

KCEF, Chicopee Falls / Westover Air Force Base

Location: Chicopee, MA, United States Lat: 42.2
Local Time: 10:33 AM EDT (14:33 GMT) Lon: -72.533
Time Zone: US/Eastern Elev: 246 ft

Show me the last for .
Show Decoded

2018-07-22 09:56 METAR KCEF 221356Z 00000KT 8SM -RA SCT008 BKN013 OVC025 22/21 A2998 RMK AO2A
                 SLP157 P0000 T02190205 =
2018-07-22 09:41 METAR KCEF 221341Z 00000KT 5SM -RA BR SCT008 BKN011 OVC025 22/20 A2998 RMK AO2A
                 SLP157 =
2018-07-22 09:14 METAR KCEF 221314Z VRB03KT 10SM SCT008 BKN017 OVC036 21/20 A2997 RMK AO2A SLP154
                 =
2018-07-22 08:56 METAR KCEF 221256Z 09004KT 8SM -RA SCT008 BKN018 OVC036 20/19 A2997 RMK AO2A
                 SLP154 P0024 T02020192 =
2018-07-22 08:32 METAR KCEF 221232Z VRB06KT 2SM -RA BR SCT005 BKN008 BKN033 OVC048 20/19 A2997
                 RMK AO2A BKN008 V SCT SLP154 =
2018-07-22 08:21 METAR KCEF 221221Z 09006KT 3/4SM R05/P6000FT RA BR SCT004 BKN008 OVC035 19/18
                 A2997 RMK AO2A SLP154 =
2018-07-22 07:56 METAR KCEF 221156Z 09007KT 2SM +RA BR SCT004 BKN007 OVC025 19/18 A2998 RMK AO2A
                 VIS NE-E 1 SLP157 P0023 60034 70034 T01920179 10192 20174 55002 =
2018-07-22 06:56 METAR KCEF 221056Z 07008G17KT 3SM -RA BR BKN008 OVC014 19/17 A2995 RMK AO2A
                 SLP147 P0002 T01870172 =
2018-07-22 05:56 METAR KCEF 220956Z AUTO 08007KT 9SM -DZ BKN011 BKN019 OVC028 18/17 A2997 RMK AO2
                 RAE55DZB55 CIG 008 RWY05 SLP154 P0005 T01820167 =
2018-07-22 04:56 METAR KCEF 220856Z AUTO 07004KT 10SM -RA OVC013 18/16 A2998 RMK AO2
                 RAE23DZB23E35RAB35 CIG 012 RWY05 SLP157 P0002 60004 T01780158 57015 =
2018-07-22 04:41 METAR KCEF 220841Z AUTO 07004KT 10SM -RA OVC014 18/16 A2999 RMK AO2
                 RAE23DZB23E35RAB35 CIG 013 RWY05 SLP160 =
2018-07-22 03:56 METAR KCEF 220756Z AUTO 07005KT 10SM -RA OVC016 17/15 A3000 RMK AO2 RAB06 OVC V
                 BKN CIG 015 RWY05 SLP164 P0002 T01740150 =
2018-07-22 03:21 METAR KCEF 220721Z AUTO 07006KT 10SM -RA OVC018 18/14 A3000 RMK AO2 RAB06 OVC V
                 BKN CIG 017 RWY05 SLP164 =
2018-07-22 03:06 METAR KCEF 220706Z AUTO 06006KT 10SM -RA BKN020 BKN029 18/14 A3001 RMK AO2 RAB06
                 SLP167 =
2018-07-22 02:56 METAR KCEF 220656Z AUTO 07005KT 10SM BKN022 18/14 A3001 RMK AO2 DZB19E49 CIG
                 022V030 BKN V SCT SLP167 P0000 T01830136 =
2018-07-22 02:50 METAR KCEF 220650Z AUTO 06006KT 10SM SCT022 18/14 A3001 RMK AO2 DZB19E49 SLP167
                 =
2018-07-22 02:49 METAR KCEF 220649Z AUTO 06006KT 10SM -DZ BKN022 BKN033 18/14 A3001 RMK AO2
                 DZB19E49 CIG 021V030 SLP167 =
2018-07-22 02:19 METAR KCEF 220619Z AUTO 06007KT 10SM -DZ BKN022 OVC033 19/14 A3002 RMK AO2 DZB19
                 SLP170 =
2018-07-22 02:11 METAR KCEF 220611Z AUTO 06008G14KT 10SM BKN022 OVC035 19/13 A3002 RMK AO2 CIG
                 022V035 SLP170 =
2018-07-22 01:56 METAR KCEF 220556Z AUTO 06007KT 10SM SCT024 OVC039 19/14 A3003 RMK AO2 SLP174
                 T01890135 10226 20188 57012 =
2018-07-22 00:56 METAR KCEF 220456Z AUTO 02004KT 10SM OVC043 19/14 A3003 RMK AO2 SLP174 T01880141
                 402700133 =
2018-07-21 23:56 METAR KCEF 220356Z AUTO 08003KT 10SM BKN050 OVC070 19/15 A3006 RMK AO2 SLP184
                 T01910146 =
2018-07-21 22:56 METAR KCEF 220256Z 05006KT 10SM BKN065 BKN200 19/15 A3006 RMK AO2A SLP184
                 T01920146 58002 =
2018-07-21 21:56 METAR KCEF 220156Z 08005KT 10SM SCT060 BKN200 20/15 A3007 RMK AO2A SLP188
                 T02020148 =
2018-07-21 20:56 METAR KCEF 220056Z 08005KT 10SM SCT060 BKN200 21/15 A3007 RMK AO2A SLP188
                 T02120148 =
2018-07-21 19:56 METAR KCEF 212356Z 08006KT 10SM FEW055 FEW200 23/14 A3007 RMK AO2A SLP188
                 T02270143 10270 20227 53004 =
2018-07-21 18:56 METAR KCEF 212256Z 10005KT 10SM FEW055 BKN200 24/14 A3006 RMK AO2A SLP184
                 T02430135 =
2018-07-21 17:56 METAR KCEF 212156Z 11003KT 10SM FEW055 BKN200 25/13 A3005 RMK AO2A SLP181
                 T02520134 =
2018-07-21 16:56 METAR KCEF 212056Z 12004KT 10SM FEW055 BKN200 26/14 A3005 RMK AO2A SLP181
                 T02640135 56012 =
2018-07-21 15:56 METAR KCEF 211956Z 14005KT 10SM FEW045 FEW200 27/13 A3006 RMK AO2A SLP184
                 T02680128 =
2018-07-21 14:56 METAR KCEF 211856Z 11004KT 10SM FEW045 FEW200 26/12 A3007 RMK AO2A SLP188
                 T02630116 =
2018-07-21 13:56 METAR KCEF 211756Z 11007KT 10SM FEW045 FEW200 26/12 A3009 RMK AO2A SLP194
                 T02620119 10267 20187 57018 =
2018-07-21 12:56 METAR KCEF 211656Z 16008KT 10SM FEW040 FEW150 SCT200 25/11 A3012 RMK AO2A SLP204
                 T02540112 =
2018-07-21 11:56 METAR KCEF 211556Z 14005KT 10SM FEW035 FEW150 SCT200 25/11 A3013 RMK AO2A SLP208
                 T02460112 =
2018-07-21 10:56 METAR KCEF 211456Z 10005KT 10SM FEW030 SCT150 BKN200 24/10 A3014 RMK AO2A SLP211
                 T02390102 58000 =

Support USWX by starting your Amazon purchase here.